Time;durP1;ratioP1;P1;durP2;ratioP2;P2;SDS_P1;SDS_P2;PMS_P1;PMS_P2;Temp;Humidity;BMP_temperature;BMP_pressure;BME280_temperature;BME280_humidity;BME280_pressure;Samples;Min_cycle;Max_cycle;Signal;HPM_P1;HPM_P2
2022/11/11 00:00:41;;;;;;;57.35;30.77;;;;;;;8.95;84.82;102379.56;1754334;81;25660;-62
2022/11/11 00:03:27;;;;;;;51.98;29.65;;;;;;;8.95;85.07;102380.91;1754385;81;25466;-61
2022/11/11 00:06:15;;;;;;;49.38;29.25;;;;;;;8.93;85.03;102376.98;1755066;81;27494;-61
2022/11/11 00:09:01;;;;;;;53.30;31.57;;;;;;;8.91;85.68;102384.24;1755815;81;25835;-61
2022/11/11 00:11:46;;;;;;;55.25;30.00;;;;;;;8.91;85.81;102377.53;1751460;81;25687;-61
2022/11/11 00:14:31;;;;;;;51.18;28.73;;;;;;;8.97;86.88;102371.41;1748357;82;25875;-62
2022/11/11 00:26:27;;;;;;;51.63;29.85;;;;;;;9.13;85.43;102380.82;1705664;83;25689;-61
2022/11/11 00:29:13;;;;;;;47.58;28.87;;;;;;;9.20;85.22;102379.05;1735982;82;25863;-61
2022/11/11 00:38:09;;;;;;;47.25;28.98;;;;;;;9.33;84.68;102383.23;1746358;82;25770;-61
2022/11/11 00:40:55;;;;;;;47.50;27.45;;;;;;;9.32;84.99;102382.84;1746591;82;25727;-61
2022/11/11 00:43:41;;;;;;;42.35;24.82;;;;;;;9.27;84.82;102386.75;1746376;82;27932;-61
2022/11/11 00:52:34;;;;;;;;;;;;;;;9.04;85.68;102387.59;1749143;82;25723;-61
2022/11/11 00:55:19;;;;;;;43.95;25.62;;;;;;;9.00;87.07;102396.75;1739161;82;25752;-61
2022/11/11 00:58:04;;;;;;;45.30;26.52;;;;;;;8.91;87.07;102399.49;1748287;81;25802;-61
2022/11/11 01:00:52;;;;;;;39.08;25.32;;;;;;;8.86;87.50;102395.72;1748229;81;25723;-61
2022/11/11 01:03:38;;;;;;;43.83;26.95;;;;;;;8.88;86.99;102399.66;1748046;82;27463;-62
2022/11/11 01:06:23;;;;;;;45.83;27.52;;;;;;;8.87;87.00;102401.48;1718383;83;25873;-61
2022/11/11 01:09:08;;;;;;;43.68;26.00;;;;;;;8.88;87.13;102399.16;1718444;83;25712;-61
2022/11/11 01:11:53;;;;;;;46.02;26.90;;;;;;;8.89;88.22;102397.36;1717008;81;25890;-61
2022/11/11 01:14:39;;;;;;;51.73;28.57;;;;;;;8.87;87.70;102400.60;1706384;82;25744;-62
2022/11/11 01:17:24;;;;;;;42.27;26.02;;;;;;;8.88;87.84;102401.84;1743303;82;27484;-61
2022/11/11 01:20:11;;;;;;;44.05;27.58;;;;;;;8.87;88.23;102402.83;1755545;81;25799;-61
2022/11/11 01:22:56;;;;;;;49.67;27.67;;;;;;;8.92;87.79;102406.11;1755500;81;25720;-61
2022/11/11 01:25:42;;;;;;;42.62;27.32;;;;;;;9.02;87.61;102399.73;1747715;81;25813;-61
2022/11/11 01:28:28;;;;;;;43.50;26.90;;;;;;;9.08;87.32;102402.09;1744598;82;25987;-61
2022/11/11 01:31:15;;;;;;;46.75;27.00;;;;;;;9.08;87.27;102407.47;1744884;81;27552;-61
2022/11/11 01:34:00;;;;;;;45.90;27.05;;;;;;;9.11;87.24;102411.80;1744855;81;25945;-61
2022/11/11 01:36:45;;;;;;;45.08;26.48;;;;;;;9.22;87.41;102414.75;1744140;81;25797;-62
2022/11/11 01:39:30;;;;;;;45.90;27.13;;;;;;;9.35;87.46;102416.71;1743353;82;26562;-61
2022/11/11 01:42:16;;;;;;;43.38;27.07;;;;;;;9.43;87.27;102414.45;1743551;81;25735;-61
2022/11/11 01:45:01;;;;;;;43.70;25.15;;;;;;;9.54;87.72;102418.73;1743992;82;29683;-62
2022/11/11 01:50:52;;;;;;;40.90;25.35;;;;;;;9.67;87.62;102422.91;1744234;81;25744;-62
2022/11/11 01:53:38;;;;;;;39.03;25.23;;;;;;;9.74;87.34;102431.48;1743762;81;25801;-62
2022/11/11 01:56:24;;;;;;;38.83;23.27;;;;;;;9.78;86.97;102433.52;1744955;82;25825;-61
2022/11/11 01:59:15;;;;;;;41.92;24.82;;;;;;;9.82;87.30;102426.98;1745058;82;27399;-62
2022/11/11 02:02:05;;;;;;;39.98;23.42;;;;;;;9.79;86.67;102429.39;1744668;82;27263;-62
2022/11/11 02:08:02;;;;;;;42.73;24.72;;;;;;;9.79;86.48;102425.84;1744671;82;27860;-62
2022/11/11 02:10:47;;;;;;;39.65;23.90;;;;;;;9.68;86.28;102428.68;1744378;81;26748;-61
2022/11/11 02:16:41;;;;;;;39.08;23.30;;;;;;;9.76;86.97;102429.59;1737745;82;25732;-62
2022/11/11 02:19:46;;;;;;;43.35;24.98;;;;;;;9.79;86.80;102429.87;1761819;80;25755;-62
2022/11/11 02:22:40;;;;;;;41.73;23.75;;;;;;;9.80;86.91;102424.40;1750608;81;26365;-62
2022/11/11 02:25:29;;;;;;;43.33;25.52;;;;;;;9.88;87.15;102430.68;1738459;82;25443;-61
2022/11/11 02:28:19;;;;;;;40.00;23.65;;;;;;;9.84;86.30;102431.34;1737893;82;27553;-62
2022/11/11 02:31:04;;;;;;;38.98;23.65;;;;;;;9.83;86.37;102432.75;1738364;82;25729;-61
2022/11/11 02:33:49;;;;;;;41.40;24.52;;;;;;;9.74;86.10;102444.92;1739338;82;25748;-62
2022/11/11 02:36:37;;;;;;;41.90;24.77;;;;;;;9.72;86.36;102440.11;1738237;82;25793;-61
2022/11/11 02:39:23;;;;;;;38.50;24.98;;;;;;;9.67;86.03;102436.34;1738161;82;25815;-62
2022/11/11 02:42:12;;;;;;;39.40;25.50;;;;;;;9.69;86.25;102442.51;1738927;82;27465;-61
2022/11/11 02:44:58;;;;;;;43.05;26.10;;;;;;;9.80;86.82;102448.59;1741413;82;25968;-61
2022/11/11 02:47:43;;;;;;;49.58;25.43;;;;;;;9.91;87.17;102441.23;1737407;82;25776;-61
2022/11/11 02:50:28;;;;;;;38.38;24.32;;;;;;;9.97;86.80;102441.34;1738711;82;25814;-61
2022/11/11 02:53:13;;;;;;;42.00;26.12;;;;;;;10.02;87.03;102444.16;1744794;81;25800;-61
2022/11/11 02:55:59;;;;;;;41.92;25.90;;;;;;;10.09;87.21;102451.39;1762256;80;27729;-61
2022/11/11 02:58:44;;;;;;;42.50;25.95;;;;;;;10.15;87.07;102448.31;1762381;81;26047;-61
2022/11/11 03:01:29;;;;;;;37.38;23.77;;;;;;;10.18;86.99;102455.33;1708661;83;25808;-61
2022/11/11 03:04:15;;;;;;;41.08;25.65;;;;;;;10.24;87.09;102456.33;1721469;81;25843;-61
2022/11/11 03:07:00;;;;;;;42.35;27.02;;;;;;;10.30;87.24;102451.91;1736941;82;27413;-61
2022/11/11 03:09:46;;;;;;;40.50;26.37;;;;;;;10.34;87.14;102453.47;1737612;82;27635;-61
2022/11/11 03:12:31;;;;;;;42.85;26.35;;;;;;;10.39;87.07;102449.19;1738914;82;26455;-61
2022/11/11 03:15:17;;;;;;;37.35;24.15;;;;;;;10.39;86.96;102452.34;1738291;82;25810;-61
2022/11/11 03:18:03;;;;;;;44.40;25.75;;;;;;;10.36;86.34;102448.45;1742896;81;25864;-61
2022/11/11 03:21:06;;;;;;;39.58;24.65;;;;;;;10.36;86.27;102449.80;1734762;82;26039;-61
2022/11/11 03:23:51;;;;;;;43.08;26.60;;;;;;;10.41;86.60;102453.97;1737722;82;27555;-61
2022/11/11 03:26:37;;;;;;;47.30;27.87;;;;;;;10.44;86.29;102451.59;1738880;82;25893;-61
2022/11/11 03:29:22;;;;;;;45.63;26.90;;;;;;;10.41;85.61;102458.50;1739543;82;25796;-61
2022/11/11 03:32:08;;;;;;;41.95;25.12;;;;;;;10.32;85.01;102450.46;1740053;82;26445;-62
2022/11/11 03:34:53;;;;;;;36.88;25.10;;;;;;;10.28;85.25;102459.69;1740011;82;25788;-61
2022/11/11 03:40:44;;;;;;;48.35;27.60;;;;;;;10.18;84.88;102452.64;1738446;82;25756;-61
2022/11/11 03:43:33;;;;;;;41.98;25.37;;;;;;;10.08;84.93;102456.86;1738425;82;25740;-61
2022/11/11 03:46:18;;;;;;;38.23;23.67;;;;;;;10.02;85.16;102455.41;1738366;82;25859;-61
2022/11/11 03:49:03;;;;;;;40.12;25.17;;;;;;;9.96;85.24;102455.28;1738653;82;25648;-61
2022/11/11 03:51:48;;;;;;;40.95;25.45;;;;;;;9.94;85.42;102460.37;1710427;83;28142;-61
2022/11/11 03:54:34;;;;;;;42.65;26.05;;;;;;;9.87;85.49;102467.92;1685326;83;25687;-61
2022/11/11 03:57:31;;;;;;;46.60;27.37;;;;;;;9.84;85.82;102466.75;1684518;85;25748;-61
2022/11/11 04:00:22;;;;;;;41.25;26.02;;;;;;;9.81;85.80;102473.66;1683534;85;25802;-61
2022/11/11 04:12:27;;;;;;;35.10;23.67;;;;;;;9.48;88.21;102480.00;1737761;81;26409;-61
2022/11/11 04:21:42;;;;;;;38.05;22.52;;;;;;;9.44;88.75;102480.66;1735027;80;25971;-61
2022/11/11 04:27:22;;;;;;;34.08;22.10;;;;;;;9.62;88.64;102479.22;1706898;84;25791;-61
2022/11/11 04:30:09;;;;;;;32.90;21.05;;;;;;;9.70;88.56;102485.90;1704182;83;25811;-61
2022/11/11 04:32:54;;;;;;;34.75;20.17;;;;;;;9.78;88.68;102489.47;1707677;83;25976;-61
2022/11/11 04:35:39;;;;;;;27.15;18.32;;;;;;;9.85;88.77;102490.87;1719971;82;29579;-61
2022/11/11 04:41:29;;;;;;;32.28;18.98;;;;;;;9.93;88.69;102494.44;1737257;82;25797;-61
2022/11/11 04:47:18;;;;;;;31.48;19.02;;;;;;;9.98;88.36;102503.58;1707837;83;25782;-61
2022/11/11 04:50:05;;;;;;;32.60;19.07;;;;;;;9.91;88.10;102507.59;1675676;85;27751;-61
2022/11/11 04:52:50;;;;;;;33.28;20.43;;;;;;;9.88;88.29;102508.64;1712635;81;25792;-62
2022/11/11 04:58:41;;;;;;;27.10;18.05;;;;;;;9.94;88.38;102516.33;1737138;82;25798;-61
2022/11/11 05:04:31;;;;;;;28.52;18.55;;;;;;;10.05;88.27;102517.53;1735644;82;27572;-61
2022/11/11 05:10:21;;;;;;;29.35;18.73;;;;;;;10.07;87.86;102530.42;1707566;83;25792;-63
2022/11/11 05:22:33;;;;;;;25.68;17.77;;;;;;;10.10;87.69;102540.97;1747678;81;25752;-61
2022/11/11 05:25:25;;;;;;;30.43;17.48;;;;;;;10.12;87.75;102541.76;1748095;81;25847;-62
2022/11/11 05:28:10;;;;;;;33.30;19.23;;;;;;;10.14;87.31;102550.61;1746577;82;26392;-62
2022/11/11 05:30:55;;;;;;;31.52;18.23;;;;;;;10.14;87.39;102551.46;1744504;82;25818;-60
2022/11/11 05:33:40;;;;;;;27.05;18.62;;;;;;;10.14;87.22;102552.81;1745099;81;27520;-61
2022/11/11 05:36:25;;;;;;;28.83;17.37;;;;;;;10.17;87.23;102555.82;1747406;82;25734;-60
2022/11/11 05:39:10;;;;;;;28.35;18.50;;;;;;;10.23;87.28;102558.14;1743194;82;25704;-62
2022/11/11 05:41:55;;;;;;;32.05;17.98;;;;;;;10.27;87.16;102558.33;1743292;82;26511;-61
2022/11/11 05:44:41;;;;;;;31.48;18.07;;;;;;;10.31;87.14;102555.86;1743215;82;25498;-62
2022/11/11 05:47:26;;;;;;;28.83;18.23;;;;;;;10.41;86.99;102566.12;1744290;82;27536;-62
2022/11/11 05:50:11;;;;;;;27.93;16.23;;;;;;;10.35;86.25;102568.66;1742904;81;25807;-61
2022/11/11 05:52:57;;;;;;;29.82;16.15;;;;;;;10.34;86.29;102573.64;1742369;80;25834;-61
2022/11/11 05:55:42;;;;;;;29.27;16.10;;;;;;;10.38;86.47;102567.63;1742664;80;25839;-61
2022/11/11 05:58:27;;;;;;;31.30;16.93;;;;;;;10.41;86.10;102580.91;1743264;82;25832;-61
2022/11/11 06:01:12;;;;;;;26.55;16.67;;;;;;;10.45;86.23;102576.61;1743209;82;27471;-61
2022/11/11 06:03:58;;;;;;;30.15;17.10;;;;;;;10.48;86.11;102580.47;1743176;82;25832;-62
2022/11/11 06:06:43;;;;;;;28.87;17.20;;;;;;;10.54;85.91;102581.05;1744302;81;25814;-62
2022/11/11 06:09:28;;;;;;;29.57;16.45;;;;;;;10.57;85.87;102584.42;1742875;82;25825;-61
2022/11/11 06:12:14;;;;;;;24.20;16.48;;;;;;;10.57;85.15;102592.98;1743547;82;25888;-61
2022/11/11 06:14:59;;;;;;;28.90;17.85;;;;;;;10.55;84.83;102590.37;1740813;81;27536;-62
2022/11/11 06:17:45;;;;;;;26.93;16.27;;;;;;;10.55;84.99;102595.75;1734586;82;25785;-62
2022/11/11 06:20:34;;;;;;;33.53;16.80;;;;;;;10.47;84.05;102605.64;1717734;81;25825;-62
2022/11/11 06:23:20;;;;;;;28.45;15.65;;;;;;;10.42;84.12;102614.94;1732247;81;25914;-61
2022/11/11 06:26:15;;;;;;;28.38;15.70;;;;;;;10.42;84.11;102613.59;1733874;82;25788;-62
2022/11/11 06:29:02;;;;;;;23.30;14.68;;;;;;;10.39;83.87;102619.14;1721187;82;27532;-61
2022/11/11 06:31:47;;;;;;;28.55;15.48;;;;;;;10.42;84.00;102618.97;1729621;82;25743;-61
2022/11/11 06:34:33;;;;;;;26.45;15.98;;;;;;;10.42;83.91;102623.86;1734761;82;25662;-61
2022/11/11 06:37:18;;;;;;;30.00;16.00;;;;;;;10.42;83.73;102627.05;1734230;82;26024;-61
2022/11/11 06:40:05;;;;;;;36.17;18.02;;;;;;;10.41;83.60;102630.69;1735723;81;25836;-61
2022/11/11 06:42:50;;;;;;;31.25;20.15;;;;;;;10.39;83.39;102625.41;1737390;82;27565;-61
2022/11/11 06:45:36;;;;;;;36.42;21.15;;;;;;;10.44;83.47;102630.03;1735048;82;25751;-60
2022/11/11 06:48:24;;;;;;;30.05;18.23;;;;;;;10.52;83.60;102629.59;1727664;82;25843;-61
2022/11/11 06:51:10;;;;;;;29.37;17.80;;;;;;;10.54;82.88;102629.00;1717435;82;25808;-61
2022/11/11 06:53:55;;;;;;;30.55;18.07;;;;;;;10.47;82.40;102631.20;1727934;81;25842;-61
2022/11/11 06:56:41;;;;;;;28.85;16.00;;;;;;;10.39;82.14;102632.13;1728005;82;27472;-61
2022/11/11 06:59:26;;;;;;;29.50;17.82;;;;;;;10.44;82.47;102644.83;1729187;82;25851;-62
2022/11/11 07:02:12;;;;;;;36.28;18.05;;;;;;;10.44;82.20;102643.97;1731026;81;25665;-62
2022/11/11 07:04:58;;;;;;;28.62;17.02;;;;;;;10.39;82.23;102646.93;1729942;82;25875;-62
2022/11/11 07:07:44;;;;;;;30.43;17.50;;;;;;;10.37;82.02;102651.95;1732759;82;25799;-61
2022/11/11 07:10:31;;;;;;;28.12;17.02;;;;;;;10.42;82.31;102652.11;1734846;82;29672;-61
2022/11/11 07:13:16;;;;;;;29.90;18.17;;;;;;;10.50;82.60;102650.33;1719806;81;25864;-61
2022/11/11 07:16:01;;;;;;;26.33;16.35;;;;;;;10.49;82.01;102655.32;1727439;82;25642;-62
2022/11/11 07:18:47;;;;;;;32.55;16.85;;;;;;;10.53;82.23;102648.82;1737880;81;26401;-61
2022/11/11 07:21:32;;;;;;;35.58;17.80;;;;;;;10.60;82.01;102651.53;1737305;82;25780;-61
2022/11/11 07:24:18;;;;;;;34.48;17.23;;;;;;;10.59;81.67;102651.14;1734045;82;27733;-62
2022/11/11 07:27:03;;;;;;;31.70;16.85;;;;;;;10.64;81.86;102658.45;1733430;82;25781;-61
2022/11/11 07:29:48;;;;;;;29.25;16.57;;;;;;;10.77;82.37;102661.78;1737499;82;26320;-61
2022/11/11 07:32:34;;;;;;;24.32;15.20;;;;;;;10.90;82.20;102668.15;1737026;82;25797;-61
2022/11/11 07:35:21;;;;;;;28.90;16.40;;;;;;;10.96;81.87;102667.80;1736507;82;25755;-61
2022/11/11 07:38:06;;;;;;;29.77;14.85;;;;;;;11.07;81.53;102667.64;1744152;80;28194;-61
2022/11/11 07:40:51;;;;;;;25.02;16.12;;;;;;;11.13;81.54;102668.61;1719935;81;25849;-61
2022/11/11 07:43:37;;;;;;;29.15;15.70;;;;;;;11.19;81.06;102666.02;1684079;83;25788;-62
2022/11/11 07:46:22;;;;;;;23.60;14.83;;;;;;;11.19;80.31;102664.67;1735940;82;26525;-62
2022/11/11 07:49:07;;;;;;;25.27;15.38;;;;;;;11.21;80.47;102667.66;1740232;82;25749;-62
2022/11/11 07:51:52;;;;;;;25.35;15.58;;;;;;;11.32;80.50;102666.13;1725756;82;27507;-63
2022/11/11 07:54:37;;;;;;;31.90;16.95;;;;;;;11.42;80.37;102661.91;1733658;81;25843;-61
2022/11/11 07:57:23;;;;;;;30.30;17.15;;;;;;;11.51;79.94;102664.03;1737201;82;25771;-62
2022/11/11 08:00:10;;;;;;;29.42;15.28;;;;;;;11.53;79.59;102659.89;1733277;81;25962;-62
2022/11/11 08:02:56;;;;;;;32.42;16.97;;;;;;;11.62;79.31;102666.05;1735456;82;25776;-61
2022/11/11 08:05:41;;;;;;;32.33;16.77;;;;;;;11.69;78.96;102666.53;1682964;84;28436;-61
2022/11/11 08:08:27;;;;;;;28.42;16.60;;;;;;;11.72;78.48;102665.86;1682023;85;25824;-61
2022/11/11 08:11:13;;;;;;;25.52;15.50;;;;;;;11.77;77.95;102670.96;1711411;81;25780;-61
2022/11/11 08:13:58;;;;;;;26.25;15.10;;;;;;;11.79;77.95;102674.40;1689333;83;26544;-61
2022/11/11 08:16:43;;;;;;;25.75;16.00;;;;;;;11.88;78.01;102675.66;1707930;83;25617;-61
2022/11/11 08:19:29;;;;;;;34.60;16.00;;;;;;;11.92;77.70;102670.93;1721850;82;27568;-60
2022/11/11 08:22:14;;;;;;;31.50;16.25;;;;;;;12.01;77.67;102675.77;1755142;81;25799;-61
2022/11/11 08:24:59;;;;;;;29.18;16.97;;;;;;;12.16;76.62;102679.31;1725797;83;25844;-61
2022/11/11 08:27:44;;;;;;;32.13;16.73;;;;;;;12.21;76.92;102685.26;1739400;79;27915;-60
2022/11/11 08:30:31;;;;;;;31.97;17.10;;;;;;;12.36;76.86;102688.79;1761375;81;25772;-61
2022/11/11 08:33:17;;;;;;;33.28;17.05;;;;;;;12.49;75.55;102688.84;1750987;81;27515;-61
2022/11/11 08:36:06;;;;;;;28.60;16.40;;;;;;;12.55;76.02;102691.63;1755786;79;25703;-61
2022/11/11 08:38:52;;;;;;;33.83;17.67;;;;;;;12.63;75.92;102690.16;1766086;79;26539;-61
2022/11/11 08:41:37;;;;;;;34.85;18.45;;;;;;;12.63;74.62;102694.22;1755921;81;26965;-61
2022/11/11 08:44:22;;;;;;;32.83;18.85;;;;;;;12.64;73.76;102696.41;1754887;81;25736;-61
2022/11/11 08:47:07;;;;;;;30.05;19.23;;;;;;;12.59;73.88;102696.72;1753954;81;27526;-61
2022/11/11 08:49:53;;;;;;;33.73;18.57;;;;;;;12.46;73.46;102699.38;1739328;82;25750;-61
2022/11/11 08:52:38;;;;;;;32.13;20.10;;;;;;;12.28;74.06;102706.83;1721650;81;25477;-62
2022/11/11 08:55:23;;;;;;;32.30;19.48;;;;;;;12.24;73.97;102699.06;1740933;81;25773;-61
2022/11/11 08:58:11;;;;;;;31.48;19.50;;;;;;;12.16;74.33;102701.75;1786826;80;25792;-61
2022/11/11 09:00:56;;;;;;;33.02;19.23;;;;;;;12.14;74.56;102696.95;1725627;83;27490;-61
2022/11/11 09:03:44;;;;;;;37.42;19.32;;;;;;;12.08;74.62;102704.57;1725786;83;26139;-61
2022/11/11 09:06:29;;;;;;;35.20;20.27;;;;;;;12.07;74.88;102700.14;1731989;81;26478;-60
2022/11/11 09:09:15;;;;;;;36.28;19.42;;;;;;;11.84;74.86;102700.61;1755626;81;25786;-62
2022/11/11 09:12:00;;;;;;;38.33;20.77;;;;;;;11.77;75.32;102699.73;1753591;81;26122;-62
2022/11/11 09:14:45;;;;;;;34.23;19.55;;;;;;;11.68;75.55;102699.35;1759616;81;27523;-62
2022/11/11 09:17:31;;;;;;;32.58;19.25;;;;;;;11.71;75.89;102695.13;1754407;81;26046;-62
2022/11/11 09:20:17;;;;;;;40.52;20.77;;;;;;;11.95;75.91;102691.83;1747637;81;25811;-62
2022/11/11 09:23:04;;;;;;;36.25;20.20;;;;;;;12.47;75.32;102696.17;1738452;82;25817;-62
2022/11/11 09:25:49;;;;;;;32.55;18.95;;;;;;;13.02;73.95;102695.66;1718778;83;25760;-62
2022/11/11 09:28:35;;;;;;;33.67;20.55;;;;;;;13.57;72.79;102696.38;1742140;82;27492;-62
2022/11/11 09:31:21;;;;;;;38.13;18.37;;;;;;;14.59;72.58;102687.25;1742497;82;25732;-62
2022/11/11 09:34:07;;;;;;;31.35;17.95;;;;;;;16.18;68.83;102690.26;1721430;83;25747;-62
2022/11/11 09:36:52;;;;;;;33.38;18.30;;;;;;;16.89;65.82;102675.70;1738664;82;27977;-62
2022/11/11 09:39:37;;;;;;;30.85;18.67;;;;;;;16.89;63.43;102678.42;1753122;81;25486;-61
2022/11/11 09:42:57;;;;;;;31.68;18.30;;;;;;;16.67;63.35;102679.87;1753695;81;27582;-62
2022/11/11 09:46:13;;;;;;;32.85;19.55;;;;;;;16.51;63.84;102670.78;1753980;81;26043;-62
2022/11/11 09:49:13;;;;;;;32.48;18.73;;;;;;;16.45;62.54;102668.59;1728884;81;25844;-61
2022/11/11 09:52:55;;;;;;;30.30;18.57;;;;;;;16.21;63.01;102669.66;1752408;81;26687;-62
2022/11/11 09:55:48;;;;;;;28.23;18.92;;;;;;;15.92;61.71;102668.33;1752573;81;25779;-60
2022/11/11 09:58:47;;;;;;;31.25;19.67;;;;;;;15.41;61.85;102671.50;1755538;81;27656;-61
2022/11/11 10:01:41;;;;;;;28.92;19.40;;;;;;;14.96;63.34;102679.91;1699374;83;25867;-61
2022/11/11 10:04:38;;;;;;;29.65;18.85;;;;;;;14.65;64.10;102677.30;1744204;82;25823;-61
2022/11/11 10:07:34;;;;;;;31.55;18.98;;;;;;;14.35;64.58;102673.20;1743806;81;26597;-62
2022/11/11 10:10:27;;;;;;;29.85;18.45;;;;;;;14.06;65.56;102674.39;1754230;81;25808;-62
2022/11/11 10:13:18;;;;;;;33.70;19.23;;;;;;;13.85;66.08;102668.70;1741903;81;27544;-61
2022/11/11 10:16:40;;;;;;;37.73;18.92;;;;;;;13.58;66.94;102672.42;1748884;81;27285;-60
2022/11/11 10:19:33;;;;;;;31.35;18.62;;;;;;;13.45;67.81;102674.25;1734418;81;25800;-62
2022/11/11 10:22:23;;;;;;;30.80;19.23;;;;;;;13.31;67.94;102663.06;1734462;82;26611;-61
2022/11/11 10:25:22;;;;;;;29.45;18.77;;;;;;;13.25;68.11;102672.45;1726913;82;25792;-61
2022/11/11 10:28:12;;;;;;;36.45;18.42;;;;;;;13.14;68.31;102661.52;1735239;81;27507;-60
2022/11/11 10:31:01;;;;;;;34.75;18.07;;;;;;;13.09;68.75;102657.79;1736286;80;27270;-61
2022/11/11 10:34:06;;;;;;;31.40;18.40;;;;;;;13.03;68.83;102660.92;1707259;82;25902;-61
2022/11/11 10:36:54;;;;;;;30.65;17.52;;;;;;;13.01;68.84;102657.45;1736483;82;25803;-61
2022/11/11 10:40:22;;;;;;;32.85;17.67;;;;;;;13.11;69.03;102654.50;1707445;84;26224;-61
2022/11/11 10:43:22;;;;;;;38.70;18.52;;;;;;;13.17;68.91;102650.98;1708518;82;27379;-61
2022/11/11 10:46:40;;;;;;;30.95;18.00;;;;;;;13.33;69.31;102639.96;1731815;82;25835;-61
2022/11/11 10:49:41;;;;;;;33.48;18.40;;;;;;;13.50;69.05;102635.60;1735466;82;25763;-62
2022/11/11 10:52:36;;;;;;;38.02;18.92;;;;;;;13.57;68.18;102638.23;1726678;82;25970;-62
2022/11/11 10:55:58;;;;;;;29.37;18.55;;;;;;;13.51;68.31;102641.86;1726212;82;25805;-60
2022/11/11 10:58:49;;;;;;;42.15;20.72;;;;;;;13.51;68.17;102640.52;1699601;83;29554;-61
2022/11/11 11:01:56;;;;;;;32.00;19.27;;;;;;;13.53;68.22;102638.09;1719345;82;27202;-61
2022/11/11 11:05:12;;;;;;;32.58;18.98;;;;;;;13.53;68.14;102645.33;1735366;82;25713;-61
2022/11/11 11:08:01;;;;;;;30.55;19.40;;;;;;;13.53;67.95;102635.87;1707460;84;25813;-62
2022/11/11 11:10:58;;;;;;;34.90;19.57;;;;;;;13.51;68.09;102636.45;1690876;82;25855;-61
2022/11/11 11:14:12;;;;;;;35.68;18.82;;;;;;;13.52;68.14;102632.78;1735204;82;26725;-62
2022/11/11 11:17:07;;;;;;;25.75;17.02;;;;;;;13.57;67.70;102634.69;1739670;81;33261;-60
2022/11/11 11:20:16;;;;;;;35.30;18.10;;;;;;;13.62;67.53;102624.39;1774454;80;25718;-61
2022/11/11 11:23:04;;;;;;;36.17;18.30;;;;;;;13.76;67.98;102624.23;1742970;82;25817;-62
2022/11/11 11:25:57;;;;;;;30.27;17.40;;;;;;;13.90;67.51;102625.09;1683296;85;25837;-61
2022/11/11 11:29:00;;;;;;;33.15;17.35;;;;;;;14.08;67.46;102620.14;1672312;85;27655;-61
2022/11/11 11:31:46;;;;;;;25.37;16.93;;;;;;;14.12;67.52;102622.16;1683688;83;25805;-61
2022/11/11 11:34:51;;;;;;;35.05;17.35;;;;;;;14.19;67.22;102624.78;1706423;84;25841;-61
2022/11/11 11:37:50;;;;;;;28.27;16.25;;;;;;;14.24;67.03;102625.28;1656386;86;34794;-61
2022/11/11 11:40:57;;;;;;;33.33;16.75;;;;;;;14.20;66.52;102628.71;1708410;83;25764;-62
2022/11/11 11:43:45;;;;;;;34.27;17.20;;;;;;;14.14;65.99;102629.18;1751812;81;26251;-62
2022/11/11 11:46:37;;;;;;;30.88;17.77;;;;;;;14.07;66.35;102627.41;1721889;83;27290;-61
2022/11/11 11:49:59;;;;;;;28.65;17.42;;;;;;;14.05;65.53;102632.56;1717337;83;25538;-62
2022/11/11 11:52:56;;;;;;;31.35;16.48;;;;;;;13.99;65.52;102626.23;1706479;82;26596;-62
2022/11/11 11:56:01;;;;;;;27.95;15.30;;;;;;;14.00;65.39;102626.14;1684424;85;25802;-61
2022/11/11 11:59:24;;;;;;;31.60;15.58;;;;;;;14.02;65.73;102632.78;1685740;84;29597;-62
2022/11/11 12:02:35;;;;;;;25.35;15.78;;;;;;;14.02;64.94;102628.25;1684281;83;25845;-61
2022/11/11 12:05:41;;;;;;;27.42;15.98;;;;;;;14.01;65.01;102631.94;1706899;84;26015;-62
2022/11/11 12:09:01;;;;;;;29.75;15.38;;;;;;;14.00;64.52;102632.02;1658355;85;26517;-62
2022/11/11 12:12:03;;;;;;;29.05;15.55;;;;;;;13.87;65.15;102631.59;1695734;84;25741;-61
2022/11/11 12:15:02;;;;;;;29.60;16.42;;;;;;;13.93;64.81;102630.28;1699141;82;28468;-61
2022/11/11 12:18:25;;;;;;;26.75;14.85;;;;;;;13.97;65.34;102626.36;1684022;83;25938;-64
2022/11/11 12:21:21;;;;;;;29.77;14.45;;;;;;;14.07;65.14;102619.80;1711307;82;25841;-62
2022/11/11 12:24:39;;;;;;;26.85;13.90;;;;;;;14.07;65.18;102619.30;1712361;82;26581;-61
2022/11/11 12:27:53;;;;;;;23.83;14.10;;;;;;;14.11;63.77;102628.55;1713046;83;25784;-62
2022/11/11 12:30:47;;;;;;;24.67;16.30;;;;;;;14.05;64.46;102623.95;1727030;82;27956;-61
2022/11/11 12:33:49;;;;;;;22.42;13.85;;;;;;;14.09;64.90;102624.58;1702307;82;26012;-61
2022/11/11 12:36:45;;;;;;;27.13;15.50;;;;;;;14.16;64.84;102629.05;1684533;84;25836;-61
2022/11/11 12:39:51;;;;;;;24.15;15.68;;;;;;;14.16;64.50;102631.29;1668975;85;25818;-61
2022/11/11 12:42:58;;;;;;;25.80;15.32;;;;;;;14.06;63.48;102625.68;1684764;83;25755;-60
2022/11/11 12:46:23;;;;;;;28.00;16.70;;;;;;;13.89;64.24;102624.23;1706765;83;27507;-61
2022/11/11 12:49:54;;;;;;;29.85;16.37;;;;;;;13.85;64.40;102626.77;1683768;84;25697;-61
2022/11/11 12:53:01;;;;;;;25.68;15.80;;;;;;;13.78;64.64;102629.05;1685637;82;25744;-61
2022/11/11 12:56:27;;;;;;;28.07;15.80;;;;;;;13.68;64.69;102625.28;1679355;84;25863;-62
2022/11/11 12:59:31;;;;;;;24.37;14.30;;;;;;;13.61;64.95;102633.47;1711775;82;25749;-62
2022/11/11 13:02:43;;;;;;;22.67;13.20;;;;;;;13.49;64.95;102627.61;1711073;83;28500;-62
2022/11/11 13:05:51;;;;;;;26.48;14.87;;;;;;;13.40;65.24;102631.32;1714615;82;25555;-61
2022/11/11 13:09:06;;;;;;;27.45;15.15;;;;;;;13.36;65.51;102624.39;1709936;83;25673;-62
2022/11/11 13:12:14;;;;;;;26.40;13.03;;;;;;;13.32;65.21;102633.67;1699462;83;25820;-61
2022/11/11 13:15:05;;;;;;;29.25;13.38;;;;;;;13.28;65.01;102640.29;1680157;82;25759;-61
2022/11/11 13:17:52;;;;;;;23.00;14.87;;;;;;;13.25;65.19;102634.63;1692731;84;27637;-62
2022/11/11 13:20:55;;;;;;;25.05;13.58;;;;;;;13.23;65.54;102635.20;1710013;82;27279;-62
2022/11/11 13:23:40;;;;;;;22.17;14.03;;;;;;;13.23;65.66;102627.09;1710779;83;25789;-62
2022/11/11 13:26:37;;;;;;;28.35;15.63;;;;;;;13.26;65.65;102640.88;1715759;83;26460;-60
2022/11/11 13:30:01;;;;;;;24.82;14.73;;;;;;;13.24;65.55;102632.89;1698770;83;25759;-60
2022/11/11 13:32:51;;;;;;;34.25;16.10;;;;;;;13.21;65.66;102630.89;1700165;82;28629;-61
2022/11/11 13:35:43;;;;;;;28.60;16.40;;;;;;;13.20;65.92;102639.97;1735367;82;25927;-61
2022/11/11 13:38:39;;;;;;;31.50;16.10;;;;;;;13.15;66.08;102634.88;1734900;82;25825;-61
2022/11/11 13:41:31;;;;;;;26.95;15.95;;;;;;;13.12;66.31;102646.78;1726782;82;26675;-61
2022/11/11 13:44:22;;;;;;;27.48;17.17;;;;;;;13.05;66.35;102642.75;1721478;82;25776;-61
2022/11/11 13:47:12;;;;;;;30.88;17.30;;;;;;;12.95;66.67;102639.83;1733852;82;27452;-61
2022/11/11 13:50:02;;;;;;;30.10;17.42;;;;;;;12.91;66.93;102648.25;1705723;83;25931;-62
2022/11/11 13:53:07;;;;;;;32.83;17.25;;;;;;;12.84;67.42;102649.15;1724220;83;25547;-62
2022/11/11 13:56:01;;;;;;;28.87;17.00;;;;;;;12.75;67.64;102647.08;1705865;84;25992;-61
2022/11/11 13:58:49;;;;;;;27.07;15.58;;;;;;;12.68;68.10;102650.70;1726746;82;25904;-61
2022/11/11 14:01:37;;;;;;;34.40;16.70;;;;;;;12.64;68.23;102646.46;1683924;85;27416;-61
2022/11/11 14:04:23;;;;;;;35.60;17.23;;;;;;;12.63;68.35;102644.27;1696338;84;25977;-61
2022/11/11 14:07:08;;;;;;;27.62;15.00;;;;;;;12.59;68.44;102645.92;1684739;84;25772;-61
2022/11/11 14:10:01;;;;;;;27.95;15.10;;;;;;;12.60;68.82;102649.86;1707613;82;26608;-61
2022/11/11 14:12:52;;;;;;;31.42;16.07;;;;;;;12.60;68.79;102648.97;1707947;82;25766;-61
2022/11/11 14:15:53;;;;;;;36.17;16.45;;;;;;;12.61;68.89;102649.36;1710325;82;27544;-61
2022/11/11 14:18:41;;;;;;;34.63;15.30;;;;;;;12.58;68.80;102650.94;1716896;82;25527;-61